Time;durP1;ratioP1;P1;durP2;ratioP2;P2;SDS_P1;SDS_P2;PMS_P1;PMS_P2;Temp;Humidity;BMP_temperature;BMP_pressure;BME280_temperature;BME280_humidity;BME280_pressure;Samples;Min_cycle;Max_cycle;Signal;HPM_P1;HPM_P2
2023/03/27 00:01:41;;;;;;;3.03;2.30;;;;;;;8.93;99.12;97004.38;4109687;28;20205;-85
2023/03/27 00:03:48;;;;;;;1.85;1.65;;;;;;;8.93;98.84;97000.00;4127686;28;20246;-86
2023/03/27 00:06:00;;;;;;;3.00;2.20;;;;;;;8.94;98.68;97009.47;4125187;28;20623;-85
2023/03/27 00:08:03;;;;;;;2.22;2.03;;;;;;;8.95;98.94;97016.28;4130625;28;20204;-85
2023/03/27 00:10:07;;;;;;;2.30;2.10;;;;;;;8.95;99.75;97015.47;4129181;28;20212;-85
2023/03/27 00:12:11;;;;;;;2.40;2.20;;;;;;;8.93;98.54;97023.41;4128000;28;20208;-85
2023/03/27 00:14:14;;;;;;;3.33;2.22;;;;;;;8.92;98.76;97015.72;4130078;28;20200;-85
2023/03/27 00:16:18;;;;;;;2.42;2.10;;;;;;;8.86;99.37;97021.41;4140702;28;20203;-85
2023/03/27 00:18:22;;;;;;;2.80;2.50;;;;;;;8.84;99.23;97025.91;4110816;28;20314;-85
2023/03/27 00:20:26;;;;;;;3.15;2.35;;;;;;;8.85;99.19;97021.53;4107126;28;20633;-85
2023/03/27 00:22:29;;;;;;;2.60;2.40;;;;;;;8.87;98.87;97030.88;4123480;28;20208;-86
2023/03/27 00:24:33;;;;;;;3.08;2.65;;;;;;;8.83;99.24;97034.63;4112022;28;20201;-85
2023/03/27 00:26:39;;;;;;;3.90;2.40;;;;;;;8.81;99.02;97033.09;4129918;28;20327;-85
2023/03/27 00:28:42;;;;;;;4.05;2.72;;;;;;;8.79;98.64;97040.19;4111226;28;20204;-85
2023/03/27 00:30:47;;;;;;;3.33;2.20;;;;;;;8.78;98.69;97033.34;4109645;28;20211;-85
2023/03/27 00:32:51;;;;;;;3.60;2.30;;;;;;;8.81;99.13;97041.75;4112122;28;20197;-85
2023/03/27 00:34:54;;;;;;;6.10;2.05;;;;;;;8.81;99.74;97046.09;4139364;28;20230;-85
2023/03/27 00:36:59;;;;;;;1.80;1.70;;;;;;;8.78;98.59;97043.72;4110592;28;20699;-85
2023/03/27 00:39:02;;;;;;;1.50;1.30;;;;;;;8.73;98.45;97051.88;4122796;28;20751;-85
2023/03/27 00:41:06;;;;;;;1.35;1.10;;;;;;;8.67;97.43;97052.34;4109625;28;20208;-85
2023/03/27 00:43:21;;;;;;;1.60;1.00;;;;;;;8.64;98.39;97059.56;4142300;28;20208;-85
2023/03/27 00:45:27;;;;;;;2.35;1.20;;;;;;;8.64;98.20;97062.19;4140046;28;20216;-85
2023/03/27 00:47:32;;;;;;;1.85;1.10;;;;;;;8.68;98.64;97069.63;4113267;28;20611;-85
2023/03/27 00:49:37;;;;;;;1.30;1.00;;;;;;;8.75;97.32;97075.16;4104135;28;20312;-85
2023/03/27 00:51:41;;;;;;;1.88;1.20;;;;;;;8.65;97.14;97066.44;4122631;28;20285;-85
2023/03/27 00:53:46;;;;;;;1.80;1.00;;;;;;;8.62;97.52;97079.66;4138521;28;20284;-85
2023/03/27 00:55:51;;;;;;;1.10;0.88;;;;;;;8.61;97.55;97080.59;4130045;28;20583;-85
2023/03/27 00:57:57;;;;;;;2.00;1.00;;;;;;;8.61;96.63;97076.22;4120228;28;20227;-85
2023/03/27 01:00:08;;;;;;;1.02;0.82;;;;;;;8.54;97.68;97072.47;4124240;28;20635;-85
2023/03/27 01:02:13;;;;;;;1.10;0.90;;;;;;;8.53;97.42;97075.16;4112917;28;20684;-85
2023/03/27 01:04:20;;;;;;;1.40;0.80;;;;;;;8.50;97.91;97081.41;4126443;28;20715;-85
2023/03/27 01:06:25;;;;;;;1.15;0.80;;;;;;;8.53;97.92;97088.16;4127288;28;20215;-85
2023/03/27 01:08:32;;;;;;;1.40;0.90;;;;;;;8.57;98.87;97098.22;4104835;28;20678;-85
2023/03/27 01:10:51;;;;;;;1.37;1.00;;;;;;;8.58;97.90;97099.03;4106703;28;20682;-85
2023/03/27 01:12:59;;;;;;;1.40;1.10;;;;;;;8.61;97.57;97104.81;4107564;28;20695;-85
2023/03/27 01:15:19;;;;;;;1.30;0.95;;;;;;;8.47;97.34;97110.22;4131307;28;20294;-85
2023/03/27 01:17:34;;;;;;;1.65;0.90;;;;;;;8.45;96.90;97108.72;4124012;28;20204;-85
2023/03/27 01:20:12;;;;;;;1.23;0.90;;;;;;;8.44;96.04;97114.03;4106238;28;20335;-85
2023/03/27 01:22:52;;;;;;;1.15;0.80;;;;;;;8.35;96.88;97127.69;4101552;28;20211;-85
2023/03/27 01:25:17;;;;;;;1.00;0.70;;;;;;;8.22;95.03;97134.75;4124140;28;20239;-85
2023/03/27 01:27:36;;;;;;;1.00;0.80;;;;;;;8.15;95.97;97131.78;4133775;28;20255;-85
2023/03/27 01:29:51;;;;;;;0.90;0.70;;;;;;;8.03;94.77;97143.03;4128194;28;20207;-85
2023/03/27 01:32:14;;;;;;;2.60;0.70;;;;;;;8.01;95.30;97144.91;4118981;28;20220;-85
2023/03/27 01:34:41;;;;;;;1.10;0.70;;;;;;;7.94;94.92;97152.41;4110008;28;20708;-85
2023/03/27 01:37:05;;;;;;;1.73;0.80;;;;;;;7.80;95.59;97147.41;4125675;28;20295;-85
2023/03/27 01:39:22;;;;;;;1.00;0.70;;;;;;;7.77;95.92;97156.25;4127814;28;20248;-85
2023/03/27 01:41:27;;;;;;;1.85;0.80;;;;;;;7.77;95.33;97165.78;4124770;28;20833;-85
2023/03/27 01:43:34;;;;;;;2.35;1.10;;;;;;;7.77;96.21;97168.41;4109047;28;20301;-85
2023/03/27 01:45:43;;;;;;;1.48;1.10;;;;;;;7.79;95.82;97182.09;4109756;28;20215;-85
2023/03/27 01:47:52;;;;;;;1.55;1.10;;;;;;;7.81;95.89;97183.63;4105240;28;20331;-85
2023/03/27 01:49:58;;;;;;;1.52;1.00;;;;;;;7.79;95.50;97188.13;4110938;28;20215;-85
2023/03/27 01:52:04;;;;;;;1.55;0.80;;;;;;;7.83;94.61;97197.31;4122540;28;21621;-85
2023/03/27 01:54:10;;;;;;;1.10;0.82;;;;;;;7.79;95.37;97200.28;4119682;28;20942;-85
2023/03/27 01:56:24;;;;;;;1.20;1.02;;;;;;;7.75;95.79;97207.44;4122573;28;20261;-85
2023/03/27 01:58:32;;;;;;;1.50;1.10;;;;;;;7.81;95.54;97219.97;4123866;28;20231;-85
2023/03/27 02:00:37;;;;;;;1.50;1.20;;;;;;;7.68;93.83;97226.97;4111386;28;20205;-85
2023/03/27 02:03:02;;;;;;;1.50;1.13;;;;;;;7.62;94.53;97223.97;4125290;28;20188;-85
2023/03/27 02:05:11;;;;;;;2.15;1.42;;;;;;;7.60;93.59;97239.66;4140299;28;20235;-85
2023/03/27 02:07:23;;;;;;;3.78;1.40;;;;;;;7.57;93.97;97244.22;4123601;28;20245;-85
2023/03/27 02:09:32;;;;;;;1.77;1.05;;;;;;;7.59;93.21;97250.97;4120122;28;20699;-85
2023/03/27 02:11:38;;;;;;;2.22;1.35;;;;;;;7.54;93.89;97250.44;4106499;28;20236;-85
2023/03/27 02:13:43;;;;;;;1.50;1.30;;;;;;;7.48;93.51;97260.44;4112709;28;20279;-85
2023/03/27 02:15:50;;;;;;;1.67;1.20;;;;;;;7.49;93.84;97264.69;4127131;28;20277;-85
2023/03/27 02:17:56;;;;;;;1.40;1.25;;;;;;;7.48;93.77;97267.41;4131235;28;20258;-85
2023/03/27 02:20:08;;;;;;;1.88;1.20;;;;;;;7.45;94.16;97273.63;4107882;28;20279;-85
2023/03/27 02:22:11;;;;;;;2.40;1.50;;;;;;;7.47;93.20;97269.13;4131326;28;20235;-85
2023/03/27 02:24:21;;;;;;;1.60;1.30;;;;;;;7.45;93.54;97280.56;4110271;28;20231;-85
2023/03/27 02:26:25;;;;;;;1.95;1.50;;;;;;;7.31;93.59;97284.13;4111888;28;20212;-84
2023/03/27 02:28:41;;;;;;;1.90;1.27;;;;;;;7.32;93.89;97284.94;4106414;28;20303;-84
2023/03/27 02:30:48;;;;;;;1.70;1.58;;;;;;;7.25;94.64;97292.31;4105680;28;20242;-85
2023/03/27 02:33:17;;;;;;;3.63;1.85;;;;;;;7.25;94.83;97307.03;4107603;28;20202;-84
2023/03/27 02:35:28;;;;;;;2.20;1.85;;;;;;;7.23;94.94;97314.06;4103049;28;20213;-85
2023/03/27 02:37:40;;;;;;;3.22;2.13;;;;;;;7.24;94.71;97321.75;4122702;28;20293;-84
2023/03/27 02:39:56;;;;;;;4.18;2.00;;;;;;;7.21;94.04;97321.13;4124862;28;20243;-85
2023/03/27 02:42:03;;;;;;;2.72;2.05;;;;;;;7.12;93.20;97319.97;4115905;28;20209;-85
2023/03/27 02:44:14;;;;;;;2.78;1.90;;;;;;;7.09;93.38;97324.56;4128721;28;20209;-85
2023/03/27 02:46:31;;;;;;;3.50;1.90;;;;;;;7.03;93.65;97332.72;4120279;28;20211;-85
2023/03/27 02:48:37;;;;;;;3.28;2.30;;;;;;;6.94;92.98;97329.94;4106703;28;20258;-85
2023/03/27 02:50:44;;;;;;;3.63;2.25;;;;;;;6.95;94.10;97339.38;4124274;28;20326;-85
2023/03/27 02:52:51;;;;;;;2.70;2.25;;;;;;;6.96;94.21;97343.59;4126396;28;20206;-85
2023/03/27 02:55:03;;;;;;;3.88;2.72;;;;;;;6.99;94.96;97356.38;4107520;28;20331;-84
2023/03/27 02:57:10;;;;;;;3.88;2.75;;;;;;;7.01;95.42;97357.94;4139110;28;20216;-85
2023/03/27 02:59:48;;;;;;;4.82;2.90;;;;;;;6.97;93.96;97374.59;4075078;29;20705;-85
2023/03/27 03:01:52;;;;;;;3.08;2.78;;;;;;;6.93;94.34;97377.50;4122076;28;20224;-84
2023/03/27 03:03:59;;;;;;;3.08;2.40;;;;;;;6.87;93.92;97383.09;4136774;28;20885;-85
2023/03/27 03:06:28;;;;;;;3.63;2.53;;;;;;;6.85;95.24;97375.41;4124466;28;20214;-84
2023/03/27 03:08:37;;;;;;;4.75;2.40;;;;;;;6.87;95.24;97383.94;4139340;28;20212;-84
2023/03/27 03:10:43;;;;;;;4.93;3.00;;;;;;;6.89;95.55;97397.63;4122813;28;20208;-84
2023/03/27 03:12:48;;;;;;;5.45;3.13;;;;;;;6.77;96.04;97395.00;4110451;28;20212;-84
2023/03/27 03:14:52;;;;;;;3.50;2.70;;;;;;;6.75;95.21;97407.19;4137127;28;20218;-84
2023/03/27 03:16:55;;;;;;;4.40;2.83;;;;;;;6.77;96.21;97410.53;4102497;28;20203;-84
2023/03/27 03:18:59;;;;;;;3.17;2.50;;;;;;;6.76;94.75;97427.00;4131243;28;20206;-84
2023/03/27 03:21:02;;;;;;;3.80;2.30;;;;;;;6.80;95.02;97431.88;4124231;28;20208;-84
2023/03/27 03:23:05;;;;;;;3.30;2.20;;;;;;;6.78;93.00;97435.50;4132007;28;20210;-84
2023/03/27 03:25:10;;;;;;;4.30;2.67;;;;;;;6.56;91.83;97442.97;4119946;28;20226;-84
2023/03/27 03:27:19;;;;;;;5.05;2.17;;;;;;;6.55;92.13;97449.06;4119683;28;20214;-84
2023/03/27 03:29:35;;;;;;;4.40;2.50;;;;;;;6.31;91.79;97460.94;4124672;28;20626;-84
2023/03/27 03:31:49;;;;;;;6.10;2.33;;;;;;;6.11;90.42;97479.47;4142907;28;20211;-84
2023/03/27 03:33:53;;;;;;;6.20;2.58;;;;;;;6.03;90.35;97480.03;4123010;28;20227;-84
2023/03/27 03:35:59;;;;;;;4.55;2.72;;;;;;;6.05;90.82;97478.19;4106779;28;20207;-84
2023/03/27 03:38:06;;;;;;;3.67;2.00;;;;;;;5.99;90.16;97494.09;4140893;28;20211;-84
2023/03/27 03:40:19;;;;;;;6.78;2.22;;;;;;;5.87;89.28;97489.66;4107305;28;20256;-84
2023/03/27 03:42:24;;;;;;;6.50;2.10;;;;;;;5.73;88.55;97500.78;4108311;28;20213;-85
2023/03/27 03:44:28;;;;;;;5.63;2.40;;;;;;;5.67;89.87;97505.47;4125197;28;20204;-84
2023/03/27 03:46:32;;;;;;;4.88;2.05;;;;;;;5.65;90.15;97509.88;4138423;28;20292;-84
2023/03/27 03:48:37;;;;;;;8.43;2.67;;;;;;;5.63;90.08;97509.16;4120049;28;20205;-84
2023/03/27 03:50:40;;;;;;;6.90;2.80;;;;;;;5.69;90.41;97511.38;4120765;28;20207;-84
2023/03/27 03:52:45;;;;;;;7.65;2.30;;;;;;;5.64;89.56;97514.25;4119956;28;20297;-84
2023/03/27 03:54:49;;;;;;;9.38;3.10;;;;;;;5.64;89.67;97519.41;4126888;28;20211;-85
2023/03/27 03:56:52;;;;;;;13.63;3.75;;;;;;;5.67;90.47;97528.75;4118637;28;20308;-84
2023/03/27 03:58:56;;;;;;;8.98;3.10;;;;;;;5.70;90.58;97533.75;4121151;28;20212;-84
2023/03/27 04:01:01;;;;;;;6.57;2.78;;;;;;;5.68;89.61;97527.81;4106217;28;20319;-84
2023/03/27 04:03:13;;;;;;;8.88;2.55;;;;;;;5.72;90.78;97543.06;4123186;28;20212;-84
2023/03/27 04:05:18;;;;;;;9.93;2.67;;;;;;;5.74;90.41;97545.59;4121672;28;20319;-85
2023/03/27 04:07:30;;;;;;;6.40;2.65;;;;;;;5.75;90.68;97548.09;4111721;28;20213;-84
2023/03/27 04:09:50;;;;;;;5.47;2.25;;;;;;;5.70;89.23;97562.19;4105094;28;20208;-85
2023/03/27 04:12:00;;;;;;;6.72;2.35;;;;;;;5.66;89.90;97568.47;4141029;28;20199;-86
2023/03/27 04:14:23;;;;;;;6.22;2.30;;;;;;;5.71;91.31;97569.03;4121204;28;20236;-86
2023/03/27 04:16:29;;;;;;;7.90;2.50;;;;;;;5.78;91.40;97578.13;4110195;28;20216;-86
2023/03/27 04:18:39;;;;;;;6.25;2.55;;;;;;;5.84;91.34;97583.78;4107669;28;22194;-86
2023/03/27 04:20:53;;;;;;;6.75;2.58;;;;;;;5.89;91.29;97606.78;4114374;28;20216;-86
2023/03/27 04:23:01;;;;;;;9.85;2.75;;;;;;;5.92;91.34;97609.22;4119335;28;20205;-86
2023/03/27 04:25:06;;;;;;;7.78;3.10;;;;;;;5.92;91.47;97615.19;4124713;28;20657;-86
2023/03/27 04:27:10;;;;;;;6.95;2.53;;;;;;;5.98;92.06;97619.22;4106802;28;20227;-86
2023/03/27 04:29:29;;;;;;;5.90;2.55;;;;;;;6.00;91.03;97632.88;4120047;28;20771;-86
2023/03/27 04:31:34;;;;;;;9.20;2.55;;;;;;;5.97;91.01;97630.47;4126863;28;20209;-86
2023/03/27 04:33:56;;;;;;;8.95;3.10;;;;;;;5.99;91.36;97636.41;4118782;28;20208;-86
2023/03/27 04:36:38;;;;;;;6.18;2.53;;;;;;;5.99;89.97;97655.34;4138360;28;20216;-87
2023/03/27 04:38:47;;;;;;;8.77;2.65;;;;;;;5.95;88.65;97663.38;4112200;28;20873;-86
2023/03/27 04:40:52;;;;;;;7.50;2.78;;;;;;;5.68;85.54;97654.53;4104424;28;20242;-87
2023/03/27 04:42:55;;;;;;;5.80;3.45;;;;;;;5.67;86.50;97653.72;4122795;28;20207;-86
2023/03/27 04:45:00;;;;;;;12.68;2.95;;;;;;;5.57;86.57;97667.25;4137086;28;20209;-91
2023/03/27 04:47:05;;;;;;;7.60;2.53;;;;;;;5.49;87.03;97669.44;4111021;28;20241;-90
2023/03/27 04:49:12;;;;;;;10.52;2.72;;;;;;;5.40;86.21;97656.19;4117639;28;20212;-86
2023/03/27 04:51:33;;;;;;;9.23;2.53;;;;;;;5.38;87.04;97665.75;4109004;28;20216;-87
2023/03/27 04:53:41;;;;;;;5.20;2.40;;;;;;;5.35;87.20;97671.94;4129455;28;20237;-88
2023/03/27 04:55:49;;;;;;;6.18;2.80;;;;;;;5.29;85.79;97677.44;4129098;28;20928;-88
2023/03/27 04:57:55;;;;;;;9.57;2.63;;;;;;;5.29;85.48;97681.75;4122591;28;20211;-87
2023/03/27 04:59:58;;;;;;;7.03;2.22;;;;;;;5.23;86.08;97693.28;4123672;28;20196;-88
2023/03/27 05:02:33;;;;;;;5.97;2.63;;;;;;;5.27;85.19;97705.09;4102418;28;20215;-87
2023/03/27 05:04:44;;;;;;;8.65;3.00;;;;;;;5.16;84.54;97707.44;4128595;28;20284;-88
2023/03/27 05:06:50;;;;;;;8.77;2.50;;;;;;;5.11;85.71;97723.28;4120844;28;20267;-87
2023/03/27 05:08:55;;;;;;;8.18;3.22;;;;;;;5.11;84.56;97726.69;4108563;28;20720;-88
2023/03/27 05:11:01;;;;;;;4.53;2.92;;;;;;;5.08;84.84;97728.59;4105284;28;20299;-89
2023/03/27 05:13:13;;;;;;;6.95;3.00;;;;;;;5.07;87.00;97737.28;4103445;28;20202;-89
2023/03/27 05:15:17;;;;;;;9.25;3.25;;;;;;;5.08;85.58;97744.09;4138479;28;20310;-89
2023/03/27 05:17:24;;;;;;;8.23;2.72;;;;;;;5.01;85.68;97746.19;4109937;28;20720;-89
2023/03/27 05:19:29;;;;;;;9.40;2.60;;;;;;;5.06;85.65;97751.09;4107168;28;20216;-88
2023/03/27 05:21:35;;;;;;;8.50;2.80;;;;;;;5.07;86.40;97757.97;4125729;28;20225;-89
2023/03/27 05:23:38;;;;;;;6.95;2.60;;;;;;;5.13;86.90;97770.53;4101102;28;20853;-87
2023/03/27 05:25:44;;;;;;;6.32;2.42;;;;;;;5.15;86.04;97777.28;4113603;28;20237;-87
2023/03/27 05:28:10;;;;;;;9.60;2.28;;;;;;;5.14;86.13;97780.78;4121421;28;20201;-89
2023/03/27 05:30:14;;;;;;;9.63;3.20;;;;;;;5.16;86.76;97784.97;4115285;28;20200;-88
2023/03/27 05:32:18;;;;;;;9.20;2.95;;;;;;;5.23;87.79;97790.63;4130862;28;20250;-88
2023/03/27 05:34:27;;;;;;;10.95;2.90;;;;;;;5.31;87.10;97798.84;4108942;28;20221;-88
2023/03/27 05:36:34;;;;;;;7.85;2.97;;;;;;;5.35;88.08;97808.97;4137603;28;20203;-88
2023/03/27 05:38:38;;;;;;;5.40;2.53;;;;;;;5.43;87.61;97808.56;4141110;28;20236;-88
2023/03/27 05:40:52;;;;;;;7.05;2.05;;;;;;;5.48;87.38;97827.22;4132840;28;20615;-88
2023/03/27 05:42:56;;;;;;;4.90;2.42;;;;;;;5.52;87.63;97824.41;4121756;28;20210;-88
2023/03/27 05:45:03;;;;;;;17.60;2.92;;;;;;;5.55;87.15;97829.41;4129007;28;20717;-88
2023/03/27 05:47:06;;;;;;;10.15;2.67;;;;;;;5.56;87.33;97838.81;4112974;28;20208;-88
2023/03/27 05:49:10;;;;;;;10.50;3.83;;;;;;;5.59;86.91;97841.25;4118036;28;20212;-88
2023/03/27 05:51:15;;;;;;;9.43;2.92;;;;;;;5.61;86.71;97839.44;4126696;28;20204;-88
2023/03/27 05:53:18;;;;;;;6.18;2.40;;;;;;;5.65;86.52;97846.09;4113119;28;20818;-86
2023/03/27 05:55:33;;;;;;;13.40;3.15;;;;;;;5.68;86.76;97846.78;4133332;28;20211;-86
2023/03/27 05:57:39;;;;;;;9.18;2.70;;;;;;;5.70;86.46;97855.31;4127993;28;20211;-85
2023/03/27 05:59:42;;;;;;;6.80;2.53;;;;;;;5.74;87.01;97874.09;4128406;28;20717;-86
2023/03/27 06:01:57;;;;;;;11.25;2.88;;;;;;;5.75;86.44;97865.44;4117636;28;20225;-86
2023/03/27 06:04:07;;;;;;;6.72;2.80;;;;;;;5.74;85.79;97866.34;4106391;28;20231;-86
2023/03/27 06:06:31;;;;;;;6.80;2.35;;;;;;;5.76;85.28;97877.47;4121233;28;20360;-86
2023/03/27 06:08:35;;;;;;;7.35;2.30;;;;;;;5.76;85.19;97882.63;4127007;28;20225;-86
2023/03/27 06:10:43;;;;;;;8.07;2.53;;;;;;;5.74;85.87;97887.91;4130932;28;20707;-86
2023/03/27 06:13:12;;;;;;;6.15;2.30;;;;;;;5.84;83.15;97898.59;4126774;28;20220;-86
2023/03/27 06:15:28;;;;;;;7.68;2.60;;;;;;;5.72;84.02;97897.44;4109094;28;20232;-88
2023/03/27 06:17:54;;;;;;;8.38;2.95;;;;;;;5.71;84.85;97893.19;4120496;28;20208;-88
2023/03/27 06:19:58;;;;;;;7.55;2.40;;;;;;;5.74;84.86;97902.56;4114977;28;20248;-88
2023/03/27 06:22:06;;;;;;;6.47;3.20;;;;;;;5.73;84.81;97909.47;4124676;28;20328;-88
2023/03/27 06:24:10;;;;;;;8.93;2.85;;;;;;;5.73;84.16;97911.22;4135651;28;20232;-88
2023/03/27 06:26:14;;;;;;;4.95;2.10;;;;;;;5.77;82.77;97920.50;4121193;28;20618;-88
2023/03/27 06:28:19;;;;;;;6.28;2.50;;;;;;;5.69;82.35;97920.03;4127020;28;20272;-86
2023/03/27 06:30:25;;;;;;;7.47;2.60;;;;;;;5.69;82.97;97932.97;4130593;28;20212;-86
2023/03/27 06:32:50;;;;;;;6.40;2.70;;;;;;;5.69;83.27;97941.56;4115137;28;20301;-86
2023/03/27 06:34:53;;;;;;;5.40;2.47;;;;;;;5.62;82.26;97944.53;4128606;28;20288;-85
2023/03/27 06:37:17;;;;;;;11.50;2.53;;;;;;;5.55;80.31;97947.53;4129030;28;20234;-86
2023/03/27 06:39:20;;;;;;;5.05;2.45;;;;;;;5.54;81.95;97951.88;4113874;28;20210;-86
2023/03/27 06:41:25;;;;;;;6.93;2.30;;;;;;;5.44;81.21;97955.84;4125070;28;20267;-86
2023/03/27 06:43:41;;;;;;;8.50;2.20;;;;;;;5.47;81.66;97968.59;4140207;28;20216;-86
2023/03/27 06:45:54;;;;;;;8.02;3.13;;;;;;;5.43;80.44;97967.09;4119666;28;20293;-86
2023/03/27 06:48:29;;;;;;;6.97;3.10;;;;;;;5.44;82.10;97973.94;4117413;28;20246;-88
2023/03/27 06:50:37;;;;;;;9.73;2.72;;;;;;;5.45;81.90;97972.19;4120676;28;20291;-86
2023/03/27 06:52:40;;;;;;;8.30;2.85;;;;;;;5.49;81.92;97982.31;4117427;28;20754;-90
2023/03/27 06:55:07;;;;;;;4.80;2.05;;;;;;;5.57;82.62;97987.91;4123559;28;20724;-90
2023/03/27 06:57:24;;;;;;;7.70;2.55;;;;;;;5.63;82.06;97987.59;4110208;28;20566;-90
2023/03/27 06:59:33;;;;;;;4.38;1.90;;;;;;;5.64;81.84;97995.28;4105828;28;20312;-90
2023/03/27 07:01:38;;;;;;;4.35;2.40;;;;;;;5.68;80.36;98007.16;4114974;28;20705;-88
2023/03/27 07:03:57;;;;;;;7.05;2.50;;;;;;;5.65;80.92;97999.56;4106706;28;20702;-90
2023/03/27 07:06:20;;;;;;;4.18;2.08;;;;;;;5.63;80.13;98019.47;4120975;28;20213;-89
2023/03/27 07:08:28;;;;;;;8.32;1.95;;;;;;;5.60;79.95;98019.63;4128987;28;20208;-89
2023/03/27 07:10:34;;;;;;;5.70;2.40;;;;;;;5.62;79.57;98027.31;4104660;28;20205;-90
2023/03/27 07:12:38;;;;;;;10.43;4.90;;;;;;;5.63;80.86;98029.00;4110889;28;20702;-92
2023/03/27 07:14:43;;;;;;;11.23;2.45;;;;;;;5.68;80.02;98037.34;4106505;28;20871;-87
2023/03/27 07:16:46;;;;;;;9.93;2.45;;;;;;;5.74;79.70;98040.53;4129444;28;20258;-91
2023/03/27 07:18:50;;;;;;;7.40;2.17;;;;;;;5.81;79.83;98048.81;4117564;28;20240;-90
2023/03/27 07:20:53;;;;;;;7.88;2.63;;;;;;;5.84;79.29;98046.88;4126991;28;20210;-90
2023/03/27 07:23:00;;;;;;;8.50;3.17;;;;;;;5.84;79.60;98053.81;4123137;28;20286;-90
2023/03/27 07:25:42;;;;;;;5.40;2.40;;;;;;;5.94;79.49;98055.00;4112205;28;20279;-90
2023/03/27 07:27:58;;;;;;;9.82;2.60;;;;;;;6.09;79.85;98055.09;4120612;28;20215;-90
2023/03/27 07:30:03;;;;;;;8.93;3.47;;;;;;;6.28;79.44;98071.34;4128156;28;20210;-90
2023/03/27 07:32:06;;;;;;;6.45;2.47;;;;;;;6.46;79.04;98083.34;4119133;28;20199;-90
2023/03/27 07:34:18;;;;;;;8.63;2.30;;;;;;;6.49;75.91;98086.59;4136154;28;20779;-90
2023/03/27 07:36:40;;;;;;;7.63;2.50;;;;;;;6.75;76.81;98088.63;4116308;28;20262;-90
2023/03/27 07:38:45;;;;;;;5.32;2.25;;;;;;;7.09;76.66;98095.34;4113868;28;20222;-90
2023/03/27 07:41:02;;;;;;;7.97;2.10;;;;;;;7.28;74.78;98100.38;4108356;28;20209;-90
2023/03/27 07:43:41;;;;;;;5.40;1.98;;;;;;;7.24;74.26;98104.06;4115206;28;20205;-89
2023/03/27 07:45:46;;;;;;;3.47;1.95;;;;;;;7.20;73.40;98087.84;4101055;28;20277;-91
2023/03/27 07:47:49;;;;;;;7.30;2.35;;;;;;;7.12;72.48;98096.94;4123921;28;20263;-90
2023/03/27 07:49:52;;;;;;;3.22;1.85;;;;;;;7.11;72.96;98103.03;4129827;28;20199;-90
2023/03/27 07:51:59;;;;;;;5.65;1.73;;;;;;;7.06;72.88;98103.28;4124997;28;20211;-88
2023/03/27 07:54:05;;;;;;;5.13;2.80;;;;;;;7.16;73.39;98114.03;4102573;28;20215;-89
2023/03/27 07:56:13;;;;;;;11.90;2.13;;;;;;;7.22;73.06;98122.28;4114580;28;20260;-89
2023/03/27 07:58:20;;;;;;;92.32;36.92;;;;;;;7.35;75.16;98125.91;4112319;28;20217;-89
2023/03/27 08:00:26;;;;;;;9.77;1.70;;;;;;;7.49;73.41;98129.38;4122547;28;20213;-89
2023/03/27 08:02:42;;;;;;;20.27;9.57;;;;;;;7.58;71.24;98136.66;4110337;28;20276;-90
2023/03/27 08:04:46;;;;;;;7.22;2.00;;;;;;;7.56;71.03;98143.69;4116807;28;20238;-89
2023/03/27 08:06:50;;;;;;;6.78;2.65;;;;;;;7.54;70.08;98144.69;4137125;28;20207;-90
2023/03/27 08:08:57;;;;;;;8.65;2.22;;;;;;;7.49;69.27;98141.53;4098030;28;20213;-89
2023/03/27 08:11:04;;;;;;;8.85;2.28;;;;;;;7.63;70.88;98146.78;4107469;28;20579;-89
2023/03/27 08:13:13;;;;;;;5.25;1.95;;;;;;;7.80;71.74;98155.28;4132174;28;20254;-90
2023/03/27 08:15:17;;;;;;;5.80;1.70;;;;;;;7.91;71.77;98152.06;4119564;28;21548;-92
2023/03/27 08:17:21;;;;;;;5.75;1.85;;;;;;;7.99;69.25;98169.72;4116029;28;20231;-91
2023/03/27 08:19:26;;;;;;;6.93;2.33;;;;;;;8.25;69.43;98171.69;4130481;28;20208;-93
2023/03/27 08:21:34;;;;;;;4.63;1.65;;;;;;;8.70;70.60;98185.44;4111984;28;20246;-94
2023/03/27 08:23:38;;;;;;;6.05;2.10;;;;;;;8.92;66.60;98191.03;4120713;28;20234;-93
2023/03/27 08:25:41;;;;;;;6.07;2.25;;;;;;;9.07;66.32;98200.53;4127212;28;20643;-94
2023/03/27 08:27:45;;;;;;;23.67;10.85;;;;;;;9.21;65.86;98192.72;4115806;28;20207;-94
2023/03/27 08:29:51;;;;;;;9.10;3.30;;;;;;;9.47;67.96;98184.94;4123778;28;20252;-95
2023/03/27 08:31:54;;;;;;;6.60;2.17;;;;;;;9.65;67.42;98194.22;4130834;28;20400;-95
2023/03/27 08:33:59;;;;;;;9.15;3.40;;;;;;;9.66;68.56;98196.72;4117189;28;20211;-94
2023/03/27 08:36:11;;;;;;;6.03;2.70;;;;;;;9.84;64.56;98196.38;4114954;28;20275;-93
2023/03/27 08:38:15;;;;;;;7.18;2.40;;;;;;;9.88;64.23;98210.06;4120960;28;20226;-92
2023/03/27 08:40:50;;;;;;;5.95;1.70;;;;;;;9.86;66.53;98212.78;4128079;28;20525;-94
2023/03/27 08:43:26;;;;;;;20.60;8.23;;;;;;;10.04;61.81;98219.44;4117634;28;20232;-96
2023/03/27 08:45:44;;;;;;;4.82;1.70;;;;;;;10.13;65.35;98218.84;4120988;28;20197;-94
2023/03/27 08:47:52;;;;;;;3.80;1.67;;;;;;;10.04;60.19;98224.66;4110377;28;20208;-93
2023/03/27 08:49:59;;;;;;;233.07;118.47;;;;;;;10.17;60.54;98225.53;4126908;28;20230;-94
2023/03/27 08:52:14;;;;;;;5.57;2.60;;;;;;;10.01;60.72;98230.06;4104916;28;20263;-92
2023/03/27 08:54:23;;;;;;;28.23;15.70;;;;;;;9.99;60.85;98234.53;4109060;28;20259;-91
2023/03/27 08:56:27;;;;;;;6.03;2.28;;;;;;;9.98;63.38;98234.63;4127997;28;20758;-92
2023/03/27 08:58:33;;;;;;;5.20;1.70;;;;;;;10.10;61.63;98245.13;4117476;28;20273;-92
2023/03/27 09:01:07;;;;;;;35.28;22.67;;;;;;;10.44;60.51;98242.00;4122344;28;21123;-91
2023/03/27 09:03:15;;;;;;;4.73;1.70;;;;;;;10.49;60.66;98250.34;4110218;28;20231;-92
2023/03/27 09:05:20;;;;;;;6.78;4.50;;;;;;;10.32;60.77;98245.38;4117613;28;20678;-92
2023/03/27 09:07:33;;;;;;;5.80;2.55;;;;;;;10.51;62.58;98257.13;4127203;28;20704;-91
2023/03/27 09:09:52;;;;;;;5.38;2.25;;;;;;;10.74;63.11;98258.22;4141831;28;20301;-90
2023/03/27 09:12:02;;;;;;;6.70;2.80;;;;;;;10.80;61.56;98262.09;4109741;28;20663;-89
2023/03/27 09:14:18;;;;;;;6.33;3.07;;;;;;;10.81;59.46;98255.13;4115577;28;20776;-91
2023/03/27 09:16:25;;;;;;;5.30;2.67;;;;;;;10.99;60.81;98266.91;4137732;28;20650;-91
2023/03/27 09:18:34;;;;;;;3.97;1.80;;;;;;;11.05;58.61;98262.13;4119811;28;20698;-91
2023/03/27 09:20:46;;;;;;;5.75;1.63;;;;;;;11.04;59.40;98263.06;4141479;28;20633;-91
2023/03/27 09:22:54;;;;;;;6.10;2.27;;;;;;;10.91;57.96;98270.03;4106823;28;20215;-91
2023/03/27 09:25:27;;;;;;;5.10;1.57;;;;;;;10.94;58.82;98269.00;4128347;28;20632;-92
2023/03/27 09:27:35;;;;;;;6.03;1.40;;;;;;;11.05;58.72;98272.56;4125199;28;20646;-92
2023/03/27 09:30:13;;;;;;;12.17;4.70;;;;;;;10.54;56.76;98261.28;4128724;28;20619;-91
2023/03/27 09:32:21;;;;;;;5.82;2.13;;;;;;;10.36;56.48;98272.94;4122687;28;20639;-91
2023/03/27 09:34:26;;;;;;;85.47;32.03;;;;;;;10.55;58.47;98263.78;4110891;28;20204;-92
2023/03/27 09:36:29;;;;;;;94.47;35.63;;;;;;;10.61;59.77;98278.22;4109180;28;20636;-90
2023/03/27 09:38:37;;;;;;;28.43;9.50;;;;;;;10.75;56.03;98285.97;4109642;28;20640;-91
2023/03/27 09:40:50;;;;;;;239.00;90.70;;;;;;;10.61;56.73;98283.44;4126051;28;20642;-91
2023/03/27 09:42:55;;;;;;;7.70;2.10;;;;;;;10.86;58.14;98285.16;4108665;28;20634;-91
2023/03/27 09:45:02;;;;;;;5.87;1.60;;;;;;;10.80;57.22;98294.34;4134418;28;20627;-91
2023/03/27 09:47:14;;;;;;;8.73;3.78;;;;;;;10.92;58.13;98289.97;4120015;28;20709;-91
2023/03/27 09:49:19;;;;;;;6.80;1.60;;;;;;;10.57;55.89;98292.38;4123516;28;20208;-91
2023/03/27 09:51:37;;;;;;;9.33;4.67;;;;;;;10.49;58.51;98289.44;4125294;28;21100;-89
2023/03/27 09:53:57;;;;;;;15.03;7.90;;;;;;;10.46;56.42;98289.63;4138825;28;20815;-90
2023/03/27 09:56:06;;;;;;;4.40;3.40;;;;;;;10.58;56.84;98288.84;4111621;28;20677;-90
2023/03/27 09:58:14;;;;;;;4.88;2.00;;;;;;;10.46;58.31;98289.63;4138073;28;20634;-89
2023/03/27 10:00:29;;;;;;;2.47;1.25;;;;;;;10.39;58.30;98293.59;4112929;28;20209;-89
2023/03/27 10:02:33;;;;;;;2.47;1.33;;;;;;;10.22;57.35;98293.00;4126194;28;20254;-90
2023/03/27 10:04:37;;;;;;;4.40;1.45;;;;;;;10.11;58.23;98298.06;4110072;28;20672;-89
2023/03/27 10:06:44;;;;;;;4.97;1.42;;;;;;;9.88;56.06;98298.63;4112143;28;20792;-90
2023/03/27 10:09:00;;;;;;;10.82;1.67;;;;;;;10.13;56.29;98304.84;4123802;28;20741;-90
2023/03/27 10:11:15;;;;;;;151.20;80.20;;;;;;;10.44;57.44;98308.00;4138838;28;20258;-92
2023/03/27 10:13:26;;;;;;;236.90;104.50;;;;;;;10.17;56.10;98295.06;4110830;28;20623;-92
2023/03/27 10:15:32;;;;;;;104.88;45.63;;;;;;;9.49;57.95;98293.25;4105661;28;20220;-91
2023/03/27 10:17:38;;;;;;;7.85;1.60;;;;;;;9.59;59.25;98298.75;4123742;28;20657;-92